createdAt,value
2023-07-16T00:01:57.483Z,96901.88
2023-07-16T00:04:24.272Z,96911.25
2023-07-16T00:06:51.038Z,96914.22
2023-07-16T00:09:17.739Z,96913.06
2023-07-16T00:11:44.457Z,96914.34
2023-07-16T00:14:11.250Z,96917.88
2023-07-16T00:16:39.373Z,96916.50
2023-07-16T00:19:06.155Z,96915.34
2023-07-16T00:21:32.845Z,96917.75
2023-07-16T00:23:59.931Z,96918.91
2023-07-16T00:26:26.647Z,96922.66
2023-07-16T00:28:53.422Z,96909.88
2023-07-16T00:31:20.277Z,96907.13
2023-07-16T00:33:48.429Z,96881.13
2023-07-16T00:36:15.522Z,96883.75
2023-07-16T00:38:42.485Z,96877.34
2023-07-16T00:41:09.999Z,96882.16
2023-07-16T00:43:36.718Z,96869.72
2023-07-16T00:46:03.532Z,96873.03
2023-07-16T00:48:30.316Z,96887.84
2023-07-16T00:50:58.463Z,96890.94
2023-07-16T00:53:25.802Z,96892.06
2023-07-16T00:55:52.519Z,96899.84
2023-07-16T00:58:19.998Z,96897.91
2023-07-16T01:00:46.699Z,96901.66
2023-07-16T01:03:14.190Z,96901.66
2023-07-16T01:05:45.733Z,96906.78
2023-07-16T01:08:13.786Z,96913.97
2023-07-16T01:10:40.559Z,96925.38
2023-07-16T01:13:07.254Z,96921.72
2023-07-16T01:15:34.010Z,96928.13
2023-07-16T01:18:00.754Z,96922.41
2023-07-16T01:20:27.507Z,96930.41
2023-07-16T01:23:06.145Z,96929.59
2023-07-16T01:25:49.569Z,96916.38
2023-07-16T01:28:28.177Z,96924.25
2023-07-16T01:30:56.255Z,96923.44
2023-07-16T01:33:22.938Z,96914.75
2023-07-16T01:35:49.679Z,96905.19
2023-07-16T01:38:18.498Z,96904.84
2023-07-16T01:40:45.327Z,96896.03
2023-07-16T01:43:12.037Z,96893.31
2023-07-16T01:45:38.790Z,96901.53
2023-07-16T01:48:12.087Z,96902.66
2023-07-16T01:50:38.855Z,96902.31
2023-07-16T01:53:05.581Z,96902.84
2023-07-16T01:55:32.283Z,96912.75
2023-07-16T01:57:58.995Z,96908.75
2023-07-16T02:00:25.744Z,96902.94
2023-07-16T02:02:52.497Z,96902.94
2023-07-16T02:05:20.652Z,96895.28
2023-07-16T02:07:47.932Z,96895.28
2023-07-16T02:10:14.665Z,96896.22
2023-07-16T02:12:41.376Z,96904.88
2023-07-16T02:15:08.499Z,96900.66
2023-07-16T02:17:37.111Z,96897.13
2023-07-16T02:20:04.530Z,96896.22
2023-07-16T02:22:32.686Z,96896.66
2023-07-16T02:24:59.470Z,96904.41
2023-07-16T02:27:26.155Z,96909.56
2023-07-16T02:29:52.888Z,96917.75
2023-07-16T02:32:19.629Z,96921.97
2023-07-16T02:34:46.382Z,96911.50
2023-07-16T02:37:13.107Z,96909.88
2023-07-16T02:39:42.353Z,96908.28
2023-07-16T02:42:09.141Z,96908.97
2023-07-16T02:44:35.863Z,96909.44
2023-07-16T02:47:03.729Z,96912.50
2023-07-16T02:49:30.460Z,96919.00
2023-07-16T02:51:58.175Z,96919.78
2023-07-16T02:54:24.873Z,96920.47
2023-07-16T02:56:52.904Z,96924.13
2023-07-16T02:59:19.603Z,96934.81
2023-07-16T03:01:47.111Z,96930.81
2023-07-16T03:04:14.628Z,96940.97
2023-07-16T03:06:41.370Z,96932.84
2023-07-16T03:09:08.063Z,96930.31
2023-07-16T03:11:34.766Z,96930.78
2023-07-16T03:14:02.875Z,96942.84
2023-07-16T03:16:29.578Z,96948.44
2023-07-16T03:18:56.288Z,96955.06
2023-07-16T03:21:23.021Z,96954.59
2023-07-16T03:23:49.735Z,96939.19
2023-07-16T03:26:16.792Z,96931.44
2023-07-16T03:28:43.684Z,96926.44
2023-07-16T03:31:14.011Z,96926.91
2023-07-16T03:33:42.915Z,96913.44
2023-07-16T03:36:09.817Z,96914.09
2023-07-16T03:38:36.555Z,96913.44
2023-07-16T03:41:03.252Z,96911.63
2023-07-16T03:43:30.413Z,96899.88
2023-07-16T03:46:05.496Z,96892.03
2023-07-16T03:48:33.592Z,96881.53
2023-07-16T03:51:00.324Z,96878.34
2023-07-16T03:53:28.490Z,96885.06
2023-07-16T03:55:55.220Z,96888.47
2023-07-16T03:58:22.018Z,96895.09
2023-07-16T04:00:48.711Z,96892.03
2023-07-16T04:03:15.510Z,96900.22
2023-07-16T04:05:43.639Z,96901.03
2023-07-16T04:08:10.335Z,96901.03
2023-07-16T04:10:37.036Z,96911.28
2023-07-16T04:13:03.726Z,96912.31
2023-07-16T04:15:30.424Z,96917.44
2023-07-16T04:17:57.291Z,96910.03
2023-07-16T04:20:24.053Z,96918.81
2023-07-16T04:22:52.200Z,96904.69
2023-07-16T04:25:19.028Z,96908.44
2023-07-16T04:27:45.732Z,96911.72
2023-07-16T04:30:12.620Z,96914.09
2023-07-16T04:32:39.353Z,96913.78
2023-07-16T04:35:07.054Z,96915.03
2023-07-16T04:37:33.738Z,96920.38
2023-07-16T04:40:01.780Z,96919.31
2023-07-16T04:42:28.463Z,96911.78
2023-07-16T04:44:55.304Z,96916.28
2023-07-16T04:47:21.993Z,96919.38
2023-07-16T04:49:48.742Z,96919.34
2023-07-16T04:52:15.444Z,96910.25
2023-07-16T04:54:42.132Z,96913.91
2023-07-16T04:57:10.228Z,96911.50
2023-07-16T04:59:36.967Z,96912.19
2023-07-16T05:02:06.037Z,96918.91
2023-07-16T05:04:33.009Z,96925.09
2023-07-16T05:06:59.802Z,96932.03
2023-07-16T05:09:26.656Z,96947.31
2023-07-16T05:11:53.362Z,96948.16
2023-07-16T05:14:21.395Z,96957.50
2023-07-16T05:16:48.165Z,96959.44
2023-07-16T05:19:14.879Z,96952.72
2023-07-16T05:21:41.686Z,96956.31
2023-07-16T05:24:08.379Z,96953.63
2023-07-16T05:26:35.079Z,96959.31
2023-07-16T05:29:01.777Z,96948.25
2023-07-16T05:31:29.817Z,96949.56
2023-07-16T05:33:56.544Z,96943.06
2023-07-16T05:36:23.272Z,96941.28
2023-07-16T05:38:49.968Z,96948.44
2023-07-16T05:41:17.143Z,96948.34
2023-07-16T05:43:43.824Z,96941.75
2023-07-16T05:46:10.583Z,96937.56
2023-07-16T05:48:38.692Z,96940.00
2023-07-16T05:51:05.471Z,96935.47
2023-07-16T05:53:32.158Z,96932.38
2023-07-16T05:55:58.875Z,96925.22
2023-07-16T05:58:25.561Z,96924.75
2023-07-16T06:00:52.282Z,96921.31
2023-07-16T06:03:19.063Z,96922.84
2023-07-16T06:05:47.248Z,96915.59
2023-07-16T06:08:13.962Z,96923.63
2023-07-16T06:10:40.711Z,96936.34
2023-07-16T06:13:07.411Z,96936.75
2023-07-16T06:15:34.123Z,96938.31
2023-07-16T06:18:00.995Z,96942.88
2023-07-16T06:20:27.812Z,96953.16
2023-07-16T06:22:55.897Z,96948.44
2023-07-16T06:25:22.608Z,96956.91
2023-07-16T06:27:49.325Z,96962.69
2023-07-16T06:30:16.105Z,96957.56
2023-07-16T06:32:42.818Z,96956.25
2023-07-16T06:35:09.829Z,96957.50
2023-07-16T06:37:36.574Z,96950.03
2023-07-16T06:40:05.839Z,96961.94
2023-07-16T06:42:32.562Z,96955.63
2023-07-16T06:44:59.247Z,96966.38
2023-07-16T06:47:25.974Z,96964.91
2023-07-16T06:49:52.771Z,96978.38
2023-07-16T06:52:20.040Z,96983.56
2023-07-16T06:54:46.759Z,96979.84
2023-07-16T06:57:14.815Z,96981.53
2023-07-16T06:59:41.506Z,96980.75
2023-07-16T07:02:08.215Z,96967.84
2023-07-16T07:04:34.900Z,96969.84
2023-07-16T07:07:01.640Z,96964.56
2023-07-16T07:09:28.334Z,96956.25
2023-07-16T07:11:55.053Z,96950.53
2023-07-16T07:14:23.096Z,96949.63
2023-07-16T07:16:49.818Z,96945.03
2023-07-16T07:19:16.580Z,96949.72
2023-07-16T07:21:43.328Z,96946.72
2023-07-16T07:24:10.104Z,96941.44
2023-07-16T07:26:36.820Z,96936.94
2023-07-16T07:29:03.528Z,96931.72
2023-07-16T07:31:31.624Z,96935.06
2023-07-16T07:33:58.406Z,96940.97
2023-07-16T07:36:25.262Z,96943.13
2023-07-16T07:38:51.983Z,96951.63
2023-07-16T07:41:18.672Z,96950.22
2023-07-16T07:43:45.441Z,96955.94
2023-07-16T07:46:12.137Z,96951.66
2023-07-16T07:48:40.186Z,96954.59
2023-07-16T07:51:06.865Z,96952.31
2023-07-16T07:53:33.586Z,96943.91
2023-07-16T07:56:00.272Z,96948.16
2023-07-16T07:58:26.977Z,96946.78
2023-07-16T08:00:53.698Z,96952.78
2023-07-16T08:03:20.513Z,96942.38
2023-07-16T08:05:50.406Z,96951.59
2023-07-16T08:08:17.219Z,96954.41
2023-07-16T08:10:43.958Z,96947.66
2023-07-16T08:13:10.698Z,96945.19
2023-07-16T08:15:37.386Z,96942.44
2023-07-16T08:18:04.153Z,96945.03
2023-07-16T08:20:30.858Z,96950.56
2023-07-16T08:22:59.034Z,96950.25
2023-07-16T08:25:25.758Z,96953.84
2023-07-16T08:27:52.488Z,96955.41
2023-07-16T08:30:19.219Z,96956.84
2023-07-16T08:32:46.003Z,96952.50
2023-07-16T08:35:12.811Z,96959.34
2023-07-16T08:37:39.521Z,96958.53
2023-07-16T08:40:08.986Z,96961.75
2023-07-16T08:42:35.703Z,96962.81
2023-07-16T08:45:02.458Z,96965.75
2023-07-16T08:47:29.207Z,96958.66
2023-07-16T08:49:56.435Z,96958.91
2023-07-16T08:52:23.241Z,96947.75
2023-07-16T08:54:49.953Z,96954.09
2023-07-16T08:57:17.980Z,96949.09
2023-07-16T08:59:44.743Z,96955.94
2023-07-16T09:02:11.497Z,96952.03
2023-07-16T09:04:38.260Z,96947.06
2023-07-16T09:07:05.608Z,96948.38
2023-07-16T09:09:32.361Z,96946.13
2023-07-16T09:11:59.038Z,96954.16
2023-07-16T09:14:27.073Z,96955.94
2023-07-16T09:16:54.046Z,96963.69
2023-07-16T09:19:22.584Z,96960.44
2023-07-16T09:21:49.331Z,96968.75
2023-07-16T09:24:17.951Z,96959.88
2023-07-16T09:26:49.424Z,96963.00
2023-07-16T09:29:16.204Z,96966.22
2023-07-16T09:31:54.207Z,96970.31
2023-07-16T09:34:21.064Z,96971.53
2023-07-16T09:36:48.366Z,96972.13
2023-07-16T09:39:15.314Z,96966.22
2023-07-16T09:41:42.009Z,96972.41
2023-07-16T09:44:08.732Z,96958.91
2023-07-16T09:46:35.452Z,96962.13
2023-07-16T09:49:03.511Z,96965.06
2023-07-16T09:51:30.386Z,96964.28
2023-07-16T09:53:57.083Z,96964.03
2023-07-16T09:56:23.799Z,96957.00
2023-07-16T09:58:51.867Z,96956.09
2023-07-16T10:01:19.745Z,96954.38
2023-07-16T10:03:49.865Z,96956.69
2023-07-16T10:06:18.006Z,96952.34
2023-07-16T10:08:49.789Z,96953.59
2023-07-16T10:11:16.854Z,96953.59
2023-07-16T10:13:43.544Z,96949.72
2023-07-16T10:16:11.276Z,96945.47
2023-07-16T10:18:37.992Z,96955.09
2023-07-16T10:21:05.398Z,96949.03
2023-07-16T10:23:39.702Z,96944.72
2023-07-16T10:26:06.554Z,96947.53
2023-07-16T10:28:33.265Z,96948.22
2023-07-16T10:31:00.029Z,96950.28
2023-07-16T10:33:26.814Z,96940.47
2023-07-16T10:35:53.524Z,96956.00
2023-07-16T10:38:20.262Z,96950.53
2023-07-16T10:40:48.283Z,96956.09
2023-07-16T10:43:15.016Z,96952.91
2023-07-16T10:45:41.791Z,96948.00
2023-07-16T10:48:08.541Z,96948.75
2023-07-16T10:50:35.342Z,96935.47
2023-07-16T10:53:02.058Z,96937.72
2023-07-16T10:55:29.655Z,96940.22
2023-07-16T10:57:57.724Z,96940.19
2023-07-16T11:00:24.518Z,96942.09
2023-07-16T11:02:51.280Z,96930.44
2023-07-16T11:05:18.657Z,96935.63
2023-07-16T11:07:49.445Z,96935.19
2023-07-16T11:10:18.158Z,96934.94
2023-07-16T11:12:45.005Z,96932.28
2023-07-16T11:15:13.060Z,96925.19
2023-07-16T11:17:39.827Z,96924.16
2023-07-16T11:20:09.187Z,96922.59
2023-07-16T11:22:39.590Z,96924.06
2023-07-16T11:25:12.127Z,96922.41
2023-07-16T11:27:41.396Z,96915.56
2023-07-16T11:30:08.763Z,96915.47
2023-07-16T11:32:37.752Z,96913.66
2023-07-16T11:35:05.803Z,96905.22
2023-07-16T11:37:33.725Z,96906.78
2023-07-16T11:40:02.943Z,96906.19
2023-07-16T11:42:29.782Z,96907.44
2023-07-16T11:44:56.924Z,96901.91
2023-07-16T11:47:23.654Z,96887.81
2023-07-16T11:49:51.836Z,96883.25
2023-07-16T11:52:20.281Z,96886.44
2023-07-16T11:54:47.001Z,96880.00
2023-07-16T11:57:13.721Z,96875.31
2023-07-16T11:59:40.463Z,96872.00
2023-07-16T12:02:07.211Z,96863.25
2023-07-16T12:04:33.879Z,96860.31
2023-07-16T12:07:01.993Z,96856.56
2023-07-16T12:09:28.699Z,96855.97
2023-07-16T12:11:55.399Z,96860.75
2023-07-16T12:14:22.098Z,96860.03
2023-07-16T12:16:48.817Z,96856.31
2023-07-16T12:19:15.590Z,96855.09
2023-07-16T12:21:42.330Z,96856.38
2023-07-16T12:24:10.435Z,96857.50
2023-07-16T12:26:37.180Z,96851.19
2023-07-16T12:29:03.904Z,96844.91
2023-07-16T12:31:31.176Z,96847.00
2023-07-16T12:33:57.988Z,96842.13
2023-07-16T12:36:24.710Z,96842.75
2023-07-16T12:38:51.396Z,96839.09
2023-07-16T12:41:19.440Z,96835.69
2023-07-16T12:43:46.823Z,96832.63
2023-07-16T12:46:13.636Z,96840.88
2023-07-16T12:48:42.817Z,96838.69
2023-07-16T12:51:09.829Z,96835.34
2023-07-16T12:53:36.522Z,96841.72
2023-07-16T12:56:03.227Z,96836.09
2023-07-16T12:58:31.267Z,96848.91
2023-07-16T13:00:58.103Z,96840.75
2023-07-16T13:03:24.892Z,96845.03
2023-07-16T13:05:51.633Z,96844.66
2023-07-16T13:08:18.309Z,96839.97
2023-07-16T13:10:45.091Z,96842.22
2023-07-16T13:13:11.840Z,96845.34
2023-07-16T13:15:39.894Z,96838.31
2023-07-16T13:18:06.652Z,96837.38
2023-07-16T13:20:33.419Z,96835.56
2023-07-16T13:23:00.162Z,96835.66
2023-07-16T13:25:27.026Z,96834.38
2023-07-16T13:27:53.742Z,96826.91
2023-07-16T13:30:20.506Z,96816.88
2023-07-16T13:32:49.082Z,96815.88
2023-07-16T13:35:16.047Z,96815.19
2023-07-16T13:37:42.765Z,96815.50
2023-07-16T13:40:09.978Z,96812.00
2023-07-16T13:42:36.718Z,96823.97
2023-07-16T13:45:03.904Z,96823.94
2023-07-16T13:47:30.676Z,96827.00
2023-07-16T13:49:58.810Z,96818.25
2023-07-16T13:52:25.511Z,96828.34
2023-07-16T13:54:52.236Z,96830.84
2023-07-16T13:57:18.950Z,96828.63
2023-07-16T13:59:45.719Z,96831.81
2023-07-16T14:02:12.559Z,96827.38
2023-07-16T14:04:39.414Z,96826.31
2023-07-16T14:07:07.532Z,96821.66
2023-07-16T14:09:34.239Z,96819.63
2023-07-16T14:12:00.962Z,96825.78
2023-07-16T14:14:27.751Z,96817.78
2023-07-16T14:16:54.524Z,96819.13
2023-07-16T14:19:21.314Z,96824.59
2023-07-16T14:21:48.052Z,96823.31
2023-07-16T14:24:16.105Z,96829.44
2023-07-16T14:26:42.810Z,96816.41
2023-07-16T14:29:09.558Z,96813.19
2023-07-16T14:31:36.367Z,96815.34
2023-07-16T14:34:03.123Z,96816.72
2023-07-16T14:36:29.817Z,96822.00
2023-07-16T14:38:56.528Z,96819.16
2023-07-16T14:41:24.570Z,96810.16
2023-07-16T14:43:51.336Z,96809.84
2023-07-16T14:46:18.757Z,96804.13
2023-07-16T14:48:45.846Z,96807.06
2023-07-16T14:51:13.720Z,96809.53
2023-07-16T14:53:40.413Z,96807.22
2023-07-16T14:56:07.129Z,96799.47
2023-07-16T14:58:35.204Z,96798.88
2023-07-16T15:01:01.980Z,96793.78
2023-07-16T15:03:28.703Z,96797.03
2023-07-16T15:05:57.272Z,96797.16
2023-07-16T15:08:24.007Z,96789.25
2023-07-16T15:10:50.770Z,96786.63
2023-07-16T15:13:17.483Z,96790.75
2023-07-16T15:15:49.581Z,96787.22
2023-07-16T15:18:16.397Z,96790.81
2023-07-16T15:20:43.170Z,96789.66
2023-07-16T15:23:10.011Z,96788.31
2023-07-16T15:25:36.748Z,96782.75
2023-07-16T15:28:03.581Z,96781.66
2023-07-16T15:30:30.266Z,96776.63
2023-07-16T15:32:58.361Z,96774.94
2023-07-16T15:35:25.101Z,96784.16
2023-07-16T15:37:51.818Z,96775.56
2023-07-16T15:40:18.630Z,96775.47
2023-07-16T15:42:45.327Z,96777.53
2023-07-16T15:45:12.719Z,96779.72
2023-07-16T15:47:39.560Z,96774.41
2023-07-16T15:50:08.258Z,96769.88
2023-07-16T15:52:35.094Z,96779.16
2023-07-16T15:55:01.807Z,96771.38
2023-07-16T15:57:28.517Z,96775.81
2023-07-16T15:59:55.204Z,96765.13
2023-07-16T16:02:22.529Z,96765.66
2023-07-16T16:04:49.350Z,96763.75
2023-07-16T16:07:17.380Z,96766.16
2023-07-16T16:09:44.107Z,96771.41
2023-07-16T16:12:10.841Z,96765.91
2023-07-16T16:14:37.526Z,96765.19
2023-07-16T16:17:08.146Z,96757.34
2023-07-16T16:19:35.307Z,96767.28
2023-07-16T16:22:02.555Z,96769.72
2023-07-16T16:24:30.708Z,96764.06
2023-07-16T16:26:57.411Z,96772.41
2023-07-16T16:29:24.155Z,96775.13
2023-07-16T16:31:51.141Z,96779.09
2023-07-16T16:34:17.918Z,96767.50
2023-07-16T16:36:44.606Z,96769.31
2023-07-16T16:39:11.369Z,96771.44
2023-07-16T16:41:39.380Z,96764.75
2023-07-16T16:44:06.612Z,96768.31
2023-07-16T16:46:33.310Z,96771.06
2023-07-16T16:49:02.932Z,96761.63
2023-07-16T16:51:29.639Z,96760.03
2023-07-16T16:53:56.353Z,96771.44
2023-07-16T16:56:23.049Z,96771.91
2023-07-16T16:58:51.100Z,96769.16
2023-07-16T17:01:18.010Z,96777.09
2023-07-16T17:03:44.923Z,96781.47
2023-07-16T17:06:11.622Z,96771.63
2023-07-16T17:08:38.313Z,96781.91
2023-07-16T17:11:05.037Z,96785.47
2023-07-16T17:13:31.726Z,96782.31
2023-07-16T17:15:59.806Z,96782.31
2023-07-16T17:18:26.541Z,96779.53
2023-07-16T17:20:53.334Z,96781.44
2023-07-16T17:23:20.177Z,96780.31
2023-07-16T17:25:46.917Z,96785.84
2023-07-16T17:28:13.652Z,96787.03
2023-07-16T17:30:40.426Z,96788.56
2023-07-16T17:33:08.664Z,96780.63
2023-07-16T17:35:35.447Z,96785.75
2023-07-16T17:38:02.138Z,96780.94
2023-07-16T17:40:29.791Z,96782.03
2023-07-16T17:42:56.536Z,96788.94
2023-07-16T17:45:23.253Z,96791.72
2023-07-16T17:47:49.984Z,96789.78
2023-07-16T17:50:18.283Z,96788.94
2023-07-16T17:52:44.983Z,96786.09
2023-07-16T17:55:11.965Z,96790.09
2023-07-16T17:57:38.709Z,96791.22
2023-07-16T18:00:21.466Z,96798.75
2023-07-16T18:02:50.575Z,96797.06
2023-07-16T18:05:19.012Z,96796.19
2023-07-16T18:07:45.775Z,96801.25
2023-07-16T18:10:12.471Z,96798.94
2023-07-16T18:12:39.225Z,96803.28
2023-07-16T18:15:07.153Z,96803.22
2023-07-16T18:17:33.919Z,96804.38
2023-07-16T18:20:01.164Z,96807.31
2023-07-16T18:22:31.594Z,96802.91
2023-07-16T18:24:58.782Z,96814.13
2023-07-16T18:27:25.928Z,96815.69
2023-07-16T18:29:52.626Z,96815.94
2023-07-16T18:32:19.449Z,96812.72
2023-07-16T18:34:46.258Z,96819.03
2023-07-16T18:37:13.078Z,96826.41
2023-07-16T18:39:41.120Z,96825.53
2023-07-16T18:42:07.966Z,96831.47
2023-07-16T18:44:34.713Z,96834.53
2023-07-16T18:47:01.412Z,96841.50
2023-07-16T18:49:28.097Z,96843.81
2023-07-16T18:51:54.792Z,96844.50
2023-07-16T18:54:21.700Z,96842.50
2023-07-16T18:56:50.042Z,96846.34
2023-07-16T18:59:16.754Z,96843.13
2023-07-16T19:01:43.504Z,96849.72
2023-07-16T19:04:10.373Z,96850.88
2023-07-16T19:06:37.088Z,96857.81
2023-07-16T19:09:03.996Z,96856.13
2023-07-16T19:11:30.726Z,96861.19
2023-07-16T19:13:58.772Z,96864.44
2023-07-16T19:16:25.514Z,96857.44
2023-07-16T19:18:52.231Z,96859.03
2023-07-16T19:21:19.028Z,96868.22
2023-07-16T19:23:45.692Z,96870.25
2023-07-16T19:26:12.394Z,96879.47
2023-07-16T19:28:39.100Z,96875.19
2023-07-16T19:31:07.173Z,96874.03
2023-07-16T19:33:33.881Z,96877.09
2023-07-16T19:36:12.943Z,96872.53
2023-07-16T19:38:41.283Z,96879.53
2023-07-16T19:41:08.148Z,96884.19
2023-07-16T19:43:34.919Z,96882.84
2023-07-16T19:46:01.718Z,96891.16
2023-07-16T19:48:29.742Z,96886.28
2023-07-16T19:50:56.480Z,96897.03
2023-07-16T19:53:23.213Z,96897.41
2023-07-16T19:55:49.872Z,96904.16
2023-07-16T19:58:16.655Z,96911.06
2023-07-16T20:00:43.471Z,96912.84
2023-07-16T20:03:10.242Z,96911.94
2023-07-16T20:05:38.442Z,96919.19
2023-07-16T20:08:05.196Z,96918.91
2023-07-16T20:10:31.928Z,96913.53
2023-07-16T20:12:58.618Z,96926.00
2023-07-16T20:15:25.370Z,96931.84
2023-07-16T20:17:52.135Z,96930.56
2023-07-16T20:20:18.867Z,96928.41
2023-07-16T20:22:46.927Z,96933.09
2023-07-16T20:25:13.695Z,96941.69
2023-07-16T20:27:42.576Z,96942.31
2023-07-16T20:30:09.953Z,96939.66
2023-07-16T20:32:37.041Z,96938.63
2023-07-16T20:35:04.032Z,96942.50
2023-07-16T20:37:30.723Z,96952.75
2023-07-16T20:39:58.763Z,96942.78
2023-07-16T20:42:25.476Z,96950.53
2023-07-16T20:45:13.698Z,96948.88
2023-07-16T20:47:40.404Z,96944.00
2023-07-16T20:50:07.680Z,96942.25
2023-07-16T20:52:34.414Z,96938.22
2023-07-16T20:55:02.441Z,96949.97
2023-07-16T20:57:29.142Z,96948.84
2023-07-16T20:59:55.806Z,96952.16
2023-07-16T21:02:22.577Z,96958.91
2023-07-16T21:04:49.329Z,96968.19
2023-07-16T21:07:16.050Z,96970.69
2023-07-16T21:09:42.728Z,96972.25
2023-07-16T21:12:10.830Z,96970.28
2023-07-16T21:14:37.506Z,96976.78
2023-07-16T21:17:04.639Z,96968.25
2023-07-16T21:19:31.428Z,96967.44
2023-07-16T21:21:58.132Z,96961.25
2023-07-16T21:24:24.837Z,96966.16
2023-07-16T21:26:51.516Z,96956.09
2023-07-16T21:29:19.576Z,96960.16
2023-07-16T21:31:46.259Z,96979.09
2023-07-16T21:34:12.948Z,96974.31
2023-07-16T21:36:39.635Z,96975.91
2023-07-16T21:39:06.577Z,96978.69
2023-07-16T21:41:33.274Z,96980.25
2023-07-16T21:44:00.035Z,96981.66
2023-07-16T21:46:28.140Z,96984.03
2023-07-16T21:48:54.852Z,96995.78
2023-07-16T21:51:21.536Z,97005.38
2023-07-16T21:53:48.264Z,97002.50
2023-07-16T21:56:14.940Z,97002.72
2023-07-16T21:58:41.626Z,97012.94
2023-07-16T22:01:08.364Z,97005.06
2023-07-16T22:03:36.494Z,97001.28
2023-07-16T22:06:03.374Z,97007.22
2023-07-16T22:08:30.070Z,97009.63
2023-07-16T22:10:56.763Z,97011.94
2023-07-16T22:13:23.480Z,97008.25
2023-07-16T22:15:50.169Z,97021.84
2023-07-16T22:18:17.006Z,97044.94
2023-07-16T22:20:45.057Z,97040.13
2023-07-16T22:23:11.813Z,97036.75
2023-07-16T22:25:38.597Z,97031.81
2023-07-16T22:28:05.331Z,97031.00
2023-07-16T22:30:32.047Z,97033.75
2023-07-16T22:32:58.778Z,97048.25
2023-07-16T22:35:25.561Z,97052.16
2023-07-16T22:37:53.609Z,97049.28
2023-07-16T22:40:20.320Z,97046.75
2023-07-16T22:42:47.033Z,97049.50
2023-07-16T22:45:13.801Z,97039.91
2023-07-16T22:47:40.527Z,97059.13
2023-07-16T22:50:08.440Z,97065.53
2023-07-16T22:52:35.157Z,97067.13
2023-07-16T22:55:03.527Z,97070.56
2023-07-16T22:57:30.213Z,97073.75
2023-07-16T22:59:56.891Z,97080.38
2023-07-16T23:02:23.625Z,97084.25
2023-07-16T23:04:50.394Z,97078.88
2023-07-16T23:07:17.165Z,97090.66
2023-07-16T23:09:43.849Z,97098.19
2023-07-16T23:12:11.897Z,97085.97
2023-07-16T23:14:38.600Z,97089.97
2023-07-16T23:17:05.604Z,97091.44
2023-07-16T23:19:32.284Z,97099.56
2023-07-16T23:21:58.982Z,97105.06
2023-07-16T23:24:25.707Z,97103.91
2023-07-16T23:26:52.396Z,97104.72
2023-07-16T23:29:20.459Z,97108.94
2023-07-16T23:31:47.194Z,97109.41
2023-07-16T23:34:14.009Z,97115.47
2023-07-16T23:36:40.673Z,97119.56
2023-07-16T23:39:07.409Z,97118.31
2023-07-16T23:41:34.118Z,97113.06
2023-07-16T23:44:00.842Z,97115.91
2023-07-16T23:46:28.943Z,97122.31
2023-07-16T23:48:55.627Z,97125.16
2023-07-16T23:51:22.335Z,97123.69
2023-07-16T23:53:49.017Z,97120.59
2023-07-16T23:56:15.789Z,97119.00
2023-07-16T23:58:42.490Z,97123.69
